sensor_id;sensor_type;location;lat;lon;timestamp;P1;durP1;ratioP1;P2;durP2;ratioP2
7166;SDS011;3625;51.762;14.320;2023-09-07T00:00:26;9.02;;;8.13;;
7166;SDS011;3625;51.762;14.320;2023-09-07T00:02:55;10.57;;;8.02;;
7166;SDS011;3625;51.762;14.320;2023-09-07T00:05:24;8.52;;;7.72;;
7166;SDS011;3625;51.762;14.320;2023-09-07T00:07:54;8.75;;;7.70;;
7166;SDS011;3625;51.762;14.320;2023-09-07T00:10:23;7.85;;;7.15;;
7166;SDS011;3625;51.762;14.320;2023-09-07T00:12:52;9.95;;;7.65;;
7166;SDS011;3625;51.762;14.320;2023-09-07T00:15:21;9.07;;;8.15;;
7166;SDS011;3625;51.762;14.320;2023-09-07T00:17:51;9.90;;;7.85;;
7166;SDS011;3625;51.762;14.320;2023-09-07T00:20:20;9.38;;;8.48;;
7166;SDS011;3625;51.762;14.320;2023-09-07T00:22:49;10.35;;;8.35;;
7166;SDS011;3625;51.762;14.320;2023-09-07T00:25:18;9.30;;;8.48;;
7166;SDS011;3625;51.762;14.320;2023-09-07T00:27:47;9.18;;;8.38;;
7166;SDS011;3625;51.762;14.320;2023-09-07T00:30:16;9.60;;;8.63;;
7166;SDS011;3625;51.762;14.320;2023-09-07T00:32:47;10.20;;;8.48;;
7166;SDS011;3625;51.762;14.320;2023-09-07T00:35:17;9.57;;;8.63;;
7166;SDS011;3625;51.762;14.320;2023-09-07T00:37:46;10.90;;;8.80;;
7166;SDS011;3625;51.762;14.320;2023-09-07T00:40:14;9.00;;;8.10;;
7166;SDS011;3625;51.762;14.320;2023-09-07T00:42:43;9.48;;;8.57;;
7166;SDS011;3625;51.762;14.320;2023-09-07T00:45:12;10.70;;;8.90;;
7166;SDS011;3625;51.762;14.320;2023-09-07T00:47:40;9.35;;;8.40;;
7166;SDS011;3625;51.762;14.320;2023-09-07T00:50:09;9.60;;;8.65;;
7166;SDS011;3625;51.762;14.320;2023-09-07T00:52:42;9.73;;;8.68;;
7166;SDS011;3625;51.762;14.320;2023-09-07T00:55:11;8.90;;;8.10;;
7166;SDS011;3625;51.762;14.320;2023-09-07T00:57:41;10.02;;;8.18;;
7166;SDS011;3625;51.762;14.320;2023-09-07T01:00:10;8.38;;;7.57;;
7166;SDS011;3625;51.762;14.320;2023-09-07T01:02:42;9.55;;;8.65;;
7166;SDS011;3625;51.762;14.320;2023-09-07T01:05:12;9.07;;;8.27;;
7166;SDS011;3625;51.762;14.320;2023-09-07T01:07:45;9.57;;;8.10;;
7166;SDS011;3625;51.762;14.320;2023-09-07T01:10:20;9.75;;;8.80;;
7166;SDS011;3625;51.762;14.320;2023-09-07T01:12:49;10.10;;;9.10;;
7166;SDS011;3625;51.762;14.320;2023-09-07T01:15:18;10.30;;;9.35;;
7166;SDS011;3625;51.762;14.320;2023-09-07T01:17:46;10.80;;;9.70;;
7166;SDS011;3625;51.762;14.320;2023-09-07T01:20:16;9.82;;;8.93;;
7166;SDS011;3625;51.762;14.320;2023-09-07T01:22:47;9.20;;;8.30;;
7166;SDS011;3625;51.762;14.320;2023-09-07T01:25:17;10.18;;;9.20;;
7166;SDS011;3625;51.762;14.320;2023-09-07T01:27:46;9.73;;;8.82;;
7166;SDS011;3625;51.762;14.320;2023-09-07T01:30:16;10.02;;;9.10;;
7166;SDS011;3625;51.762;14.320;2023-09-07T01:32:46;9.98;;;9.05;;
7166;SDS011;3625;51.762;14.320;2023-09-07T01:35:16;10.45;;;9.13;;
7166;SDS011;3625;51.762;14.320;2023-09-07T01:37:49;9.85;;;8.88;;
7166;SDS011;3625;51.762;14.320;2023-09-07T01:40:18;10.48;;;9.48;;
7166;SDS011;3625;51.762;14.320;2023-09-07T01:42:47;10.50;;;9.52;;
7166;SDS011;3625;51.762;14.320;2023-09-07T01:45:15;11.18;;;10.05;;
7166;SDS011;3625;51.762;14.320;2023-09-07T01:47:44;9.27;;;8.48;;
7166;SDS011;3625;51.762;14.320;2023-09-07T01:50:13;10.40;;;9.40;;
7166;SDS011;3625;51.762;14.320;2023-09-07T01:52:42;10.30;;;9.40;;
7166;SDS011;3625;51.762;14.320;2023-09-07T01:55:12;10.43;;;9.43;;
7166;SDS011;3625;51.762;14.320;2023-09-07T01:57:40;10.40;;;9.43;;
7166;SDS011;3625;51.762;14.320;2023-09-07T02:00:09;11.13;;;9.98;;
7166;SDS011;3625;51.762;14.320;2023-09-07T02:02:40;10.68;;;9.68;;
7166;SDS011;3625;51.762;14.320;2023-09-07T02:05:10;11.13;;;10.02;;
7166;SDS011;3625;51.762;14.320;2023-09-07T02:07:39;10.23;;;9.27;;
7166;SDS011;3625;51.762;14.320;2023-09-07T02:10:08;11.10;;;10.00;;
7166;SDS011;3625;51.762;14.320;2023-09-07T02:12:39;11.65;;;10.55;;
7166;SDS011;3625;51.762;14.320;2023-09-07T02:15:09;11.45;;;10.27;;
7166;SDS011;3625;51.762;14.320;2023-09-07T02:17:38;11.45;;;9.88;;
7166;SDS011;3625;51.762;14.320;2023-09-07T02:20:07;14.45;;;10.48;;
7166;SDS011;3625;51.762;14.320;2023-09-07T02:22:37;12.05;;;10.07;;
7166;SDS011;3625;51.762;14.320;2023-09-07T02:25:06;10.73;;;9.73;;
7166;SDS011;3625;51.762;14.320;2023-09-07T02:27:35;11.63;;;9.90;;
7166;SDS011;3625;51.762;14.320;2023-09-07T02:30:07;10.90;;;9.82;;
7166;SDS011;3625;51.762;14.320;2023-09-07T02:32:36;12.27;;;10.35;;
7166;SDS011;3625;51.762;14.320;2023-09-07T02:35:06;11.57;;;10.45;;
7166;SDS011;3625;51.762;14.320;2023-09-07T02:37:37;11.48;;;10.38;;
7166;SDS011;3625;51.762;14.320;2023-09-07T02:40:06;14.18;;;10.93;;
7166;SDS011;3625;51.762;14.320;2023-09-07T02:42:36;11.48;;;9.88;;
7166;SDS011;3625;51.762;14.320;2023-09-07T02:45:07;11.35;;;10.25;;
7166;SDS011;3625;51.762;14.320;2023-09-07T02:47:38;11.30;;;10.20;;
7166;SDS011;3625;51.762;14.320;2023-09-07T02:50:08;11.18;;;10.23;;
7166;SDS011;3625;51.762;14.320;2023-09-07T02:52:36;12.85;;;10.32;;
7166;SDS011;3625;51.762;14.320;2023-09-07T02:55:07;11.55;;;10.35;;
7166;SDS011;3625;51.762;14.320;2023-09-07T02:57:35;11.70;;;10.50;;
7166;SDS011;3625;51.762;14.320;2023-09-07T03:00:05;14.25;;;11.05;;
7166;SDS011;3625;51.762;14.320;2023-09-07T03:02:37;12.45;;;11.23;;
7166;SDS011;3625;51.762;14.320;2023-09-07T03:05:09;11.68;;;10.60;;
7166;SDS011;3625;51.762;14.320;2023-09-07T03:07:38;11.55;;;10.45;;
7166;SDS011;3625;51.762;14.320;2023-09-07T03:10:07;13.38;;;12.07;;
7166;SDS011;3625;51.762;14.320;2023-09-07T03:12:37;13.35;;;12.05;;
7166;SDS011;3625;51.762;14.320;2023-09-07T03:15:07;13.75;;;12.35;;
7166;SDS011;3625;51.762;14.320;2023-09-07T03:17:40;12.73;;;11.52;;
7166;SDS011;3625;51.762;14.320;2023-09-07T03:20:11;13.15;;;11.90;;
7166;SDS011;3625;51.762;14.320;2023-09-07T03:22:47;13.10;;;11.70;;
7166;SDS011;3625;51.762;14.320;2023-09-07T03:25:16;13.18;;;11.98;;
7166;SDS011;3625;51.762;14.320;2023-09-07T03:27:45;13.23;;;11.82;;
7166;SDS011;3625;51.762;14.320;2023-09-07T03:30:16;14.07;;;12.77;;
7166;SDS011;3625;51.762;14.320;2023-09-07T03:32:44;13.63;;;12.23;;
7166;SDS011;3625;51.762;14.320;2023-09-07T03:35:14;13.15;;;11.85;;
7166;SDS011;3625;51.762;14.320;2023-09-07T03:37:42;13.88;;;12.50;;
7166;SDS011;3625;51.762;14.320;2023-09-07T03:40:11;13.80;;;12.40;;
7166;SDS011;3625;51.762;14.320;2023-09-07T03:42:40;14.13;;;12.70;;
7166;SDS011;3625;51.762;14.320;2023-09-07T03:45:10;13.35;;;12.15;;
7166;SDS011;3625;51.762;14.320;2023-09-07T03:47:40;14.68;;;13.27;;
7166;SDS011;3625;51.762;14.320;2023-09-07T03:50:11;14.88;;;13.35;;
7166;SDS011;3625;51.762;14.320;2023-09-07T03:52:39;14.55;;;13.15;;
7166;SDS011;3625;51.762;14.320;2023-09-07T03:55:09;18.20;;;14.13;;
7166;SDS011;3625;51.762;14.320;2023-09-07T03:57:38;14.77;;;13.18;;
7166;SDS011;3625;51.762;14.320;2023-09-07T04:00:08;14.13;;;12.35;;
7166;SDS011;3625;51.762;14.320;2023-09-07T04:02:46;14.32;;;12.68;;
7166;SDS011;3625;51.762;14.320;2023-09-07T04:05:15;12.45;;;11.18;;
7166;SDS011;3625;51.762;14.320;2023-09-07T04:07:44;14.85;;;13.45;;
7166;SDS011;3625;51.762;14.320;2023-09-07T04:10:13;14.63;;;13.23;;
7166;SDS011;3625;51.762;14.320;2023-09-07T04:12:42;15.20;;;13.65;;
7166;SDS011;3625;51.762;14.320;2023-09-07T04:15:10;14.68;;;13.35;;
7166;SDS011;3625;51.762;14.320;2023-09-07T04:17:39;14.18;;;12.77;;
7166;SDS011;3625;51.762;14.320;2023-09-07T04:20:10;13.68;;;12.27;;
7166;SDS011;3625;51.762;14.320;2023-09-07T04:22:39;14.60;;;12.82;;
7166;SDS011;3625;51.762;14.320;2023-09-07T04:25:08;15.68;;;14.15;;
7166;SDS011;3625;51.762;14.320;2023-09-07T04:27:37;14.93;;;13.45;;
7166;SDS011;3625;51.762;14.320;2023-09-07T04:30:08;14.63;;;13.15;;
7166;SDS011;3625;51.762;14.320;2023-09-07T04:32:37;15.60;;;14.00;;
7166;SDS011;3625;51.762;14.320;2023-09-07T04:35:07;15.27;;;13.73;;
7166;SDS011;3625;51.762;14.320;2023-09-07T04:37:41;15.70;;;13.80;;
7166;SDS011;3625;51.762;14.320;2023-09-07T04:40:13;15.02;;;13.43;;
7166;SDS011;3625;51.762;14.320;2023-09-07T04:42:42;14.98;;;13.48;;
7166;SDS011;3625;51.762;14.320;2023-09-07T04:45:10;14.93;;;11.80;;
7166;SDS011;3625;51.762;14.320;2023-09-07T04:47:39;17.15;;;13.23;;
7166;SDS011;3625;51.762;14.320;2023-09-07T04:50:10;17.88;;;13.55;;
7166;SDS011;3625;51.762;14.320;2023-09-07T04:52:40;14.93;;;13.43;;
7166;SDS011;3625;51.762;14.320;2023-09-07T04:55:09;14.75;;;13.32;;
7166;SDS011;3625;51.762;14.320;2023-09-07T04:57:42;15.82;;;14.10;;
7166;SDS011;3625;51.762;14.320;2023-09-07T05:00:11;15.38;;;13.88;;
7166;SDS011;3625;51.762;14.320;2023-09-07T05:02:40;14.73;;;13.20;;
7166;SDS011;3625;51.762;14.320;2023-09-07T05:05:11;14.80;;;13.30;;
7166;SDS011;3625;51.762;14.320;2023-09-07T05:07:40;13.80;;;11.95;;
7166;SDS011;3625;51.762;14.320;2023-09-07T05:10:09;14.48;;;12.27;;
7166;SDS011;3625;51.762;14.320;2023-09-07T05:12:39;12.57;;;11.35;;
7166;SDS011;3625;51.762;14.320;2023-09-07T05:15:08;13.90;;;12.50;;
7166;SDS011;3625;51.762;14.320;2023-09-07T05:17:37;13.38;;;12.00;;
7166;SDS011;3625;51.762;14.320;2023-09-07T05:20:09;11.95;;;10.77;;
7166;SDS011;3625;51.762;14.320;2023-09-07T05:22:39;13.68;;;11.60;;
7166;SDS011;3625;51.762;14.320;2023-09-07T05:25:10;13.40;;;12.10;;
7166;SDS011;3625;51.762;14.320;2023-09-07T05:27:39;13.80;;;11.63;;
7166;SDS011;3625;51.762;14.320;2023-09-07T05:30:09;13.55;;;11.55;;
7166;SDS011;3625;51.762;14.320;2023-09-07T05:32:39;12.35;;;11.15;;
7166;SDS011;3625;51.762;14.320;2023-09-07T05:35:10;13.50;;;11.23;;
7166;SDS011;3625;51.762;14.320;2023-09-07T05:37:41;12.52;;;11.32;;
7166;SDS011;3625;51.762;14.320;2023-09-07T05:40:13;11.80;;;10.27;;
7166;SDS011;3625;51.762;14.320;2023-09-07T05:42:42;16.05;;;11.45;;
7166;SDS011;3625;51.762;14.320;2023-09-07T05:45:13;15.43;;;12.07;;
7166;SDS011;3625;51.762;14.320;2023-09-07T05:47:41;12.30;;;11.10;;
7166;SDS011;3625;51.762;14.320;2023-09-07T05:50:16;14.98;;;11.68;;
7166;SDS011;3625;51.762;14.320;2023-09-07T05:52:45;14.45;;;12.30;;
7166;SDS011;3625;51.762;14.320;2023-09-07T05:55:13;12.45;;;11.20;;
7166;SDS011;3625;51.762;14.320;2023-09-07T05:57:42;13.00;;;11.75;;
7166;SDS011;3625;51.762;14.320;2023-09-07T06:00:12;14.75;;;13.13;;
7166;SDS011;3625;51.762;14.320;2023-09-07T06:02:42;13.63;;;12.23;;
7166;SDS011;3625;51.762;14.320;2023-09-07T06:05:15;13.60;;;11.63;;
7166;SDS011;3625;51.762;14.320;2023-09-07T06:07:46;13.23;;;11.60;;
7166;SDS011;3625;51.762;14.320;2023-09-07T06:10:16;15.63;;;12.10;;
7166;SDS011;3625;51.762;14.320;2023-09-07T06:12:48;12.18;;;11.00;;
7166;SDS011;3625;51.762;14.320;2023-09-07T06:15:17;12.38;;;11.13;;
7166;SDS011;3625;51.762;14.320;2023-09-07T06:17:46;16.13;;;11.70;;
7166;SDS011;3625;51.762;14.320;2023-09-07T06:20:19;12.10;;;10.10;;
7166;SDS011;3625;51.762;14.320;2023-09-07T06:22:50;14.95;;;11.20;;
7166;SDS011;3625;51.762;14.320;2023-09-07T06:25:18;11.38;;;10.15;;
7166;SDS011;3625;51.762;14.320;2023-09-07T06:27:49;13.90;;;11.05;;
7166;SDS011;3625;51.762;14.320;2023-09-07T06:30:20;10.65;;;9.65;;
7166;SDS011;3625;51.762;14.320;2023-09-07T06:32:48;11.65;;;10.25;;
7166;SDS011;3625;51.762;14.320;2023-09-07T06:35:19;10.35;;;9.27;;
7166;SDS011;3625;51.762;14.320;2023-09-07T06:37:50;10.05;;;9.05;;
7166;SDS011;3625;51.762;14.320;2023-09-07T06:40:22;10.00;;;9.00;;
7166;SDS011;3625;51.762;14.320;2023-09-07T06:42:54;12.50;;;10.30;;
7166;SDS011;3625;51.762;14.320;2023-09-07T06:45:25;11.68;;;10.20;;
7166;SDS011;3625;51.762;14.320;2023-09-07T06:47:56;11.00;;;10.00;;
7166;SDS011;3625;51.762;14.320;2023-09-07T06:50:26;11.13;;;10.02;;
7166;SDS011;3625;51.762;14.320;2023-09-07T06:52:57;9.65;;;8.65;;
7166;SDS011;3625;51.762;14.320;2023-09-07T06:55:25;10.13;;;9.00;;
7166;SDS011;3625;51.762;14.320;2023-09-07T06:57:55;12.85;;;8.98;;
7166;SDS011;3625;51.762;14.320;2023-09-07T07:00:33;14.30;;;10.63;;
7166;SDS011;3625;51.762;14.320;2023-09-07T07:03:02;10.70;;;9.57;;
7166;SDS011;3625;51.762;14.320;2023-09-07T07:05:33;14.13;;;11.43;;
7166;SDS011;3625;51.762;14.320;2023-09-07T07:08:01;10.20;;;9.30;;
7166;SDS011;3625;51.762;14.320;2023-09-07T07:10:30;14.23;;;9.32;;
7166;SDS011;3625;51.762;14.320;2023-09-07T07:12:59;11.43;;;10.07;;
7166;SDS011;3625;51.762;14.320;2023-09-07T07:15:29;14.73;;;10.68;;
7166;SDS011;3625;51.762;14.320;2023-09-07T07:17:58;9.63;;;8.30;;
7166;SDS011;3625;51.762;14.320;2023-09-07T07:20:27;12.30;;;9.93;;
7166;SDS011;3625;51.762;14.320;2023-09-07T07:22:57;9.02;;;8.13;;
7166;SDS011;3625;51.762;14.320;2023-09-07T07:25:25;9.23;;;7.93;;
7166;SDS011;3625;51.762;14.320;2023-09-07T07:27:54;9.05;;;7.72;;
7166;SDS011;3625;51.762;14.320;2023-09-07T07:30:23;8.82;;;7.93;;
7166;SDS011;3625;51.762;14.320;2023-09-07T07:32:56;9.07;;;8.23;;
7166;SDS011;3625;51.762;14.320;2023-09-07T07:35:24;8.88;;;7.97;;
7166;SDS011;3625;51.762;14.320;2023-09-07T07:37:53;11.95;;;7.82;;
7166;SDS011;3625;51.762;14.320;2023-09-07T07:40:23;8.82;;;7.63;;
7166;SDS011;3625;51.762;14.320;2023-09-07T07:42:53;9.20;;;8.23;;
7166;SDS011;3625;51.762;14.320;2023-09-07T07:45:22;8.65;;;7.78;;
7166;SDS011;3625;51.762;14.320;2023-09-07T07:47:51;13.23;;;7.95;;
7166;SDS011;3625;51.762;14.320;2023-09-07T07:50:23;9.55;;;8.02;;
7166;SDS011;3625;51.762;14.320;2023-09-07T07:52:52;7.63;;;6.93;;
7166;SDS011;3625;51.762;14.320;2023-09-07T07:55:20;10.93;;;7.93;;
7166;SDS011;3625;51.762;14.320;2023-09-07T07:57:51;9.02;;;7.63;;
7166;SDS011;3625;51.762;14.320;2023-09-07T08:00:20;8.70;;;7.80;;
7166;SDS011;3625;51.762;14.320;2023-09-07T08:02:53;8.55;;;7.75;;
7166;SDS011;3625;51.762;14.320;2023-09-07T08:05:25;8.70;;;7.50;;
7166;SDS011;3625;51.762;14.320;2023-09-07T08:07:53;9.88;;;7.63;;
7166;SDS011;3625;51.762;14.320;2023-09-07T08:10:23;7.57;;;6.88;;
7166;SDS011;3625;51.762;14.320;2023-09-07T08:12:57;8.65;;;7.75;;
7166;SDS011;3625;51.762;14.320;2023-09-07T08:15:26;8.68;;;7.28;;
7166;SDS011;3625;51.762;14.320;2023-09-07T08:17:55;9.45;;;8.15;;
7166;SDS011;3625;51.762;14.320;2023-09-07T08:20:24;8.68;;;7.22;;
7166;SDS011;3625;51.762;14.320;2023-09-07T08:22:55;9.82;;;7.43;;
7166;SDS011;3625;51.762;14.320;2023-09-07T08:25:26;7.97;;;7.18;;
7166;SDS011;3625;51.762;14.320;2023-09-07T08:27:56;8.23;;;7.30;;
7166;SDS011;3625;51.762;14.320;2023-09-07T08:30:26;7.72;;;6.85;;
7166;SDS011;3625;51.762;14.320;2023-09-07T08:32:56;7.63;;;6.82;;
7166;SDS011;3625;51.762;14.320;2023-09-07T08:35:24;8.23;;;7.03;;
7166;SDS011;3625;51.762;14.320;2023-09-07T08:37:54;8.07;;;7.28;;
7166;SDS011;3625;51.762;14.320;2023-09-07T08:40:25;8.05;;;6.43;;
7166;SDS011;3625;51.762;14.320;2023-09-07T08:42:57;8.27;;;7.35;;
7166;SDS011;3625;51.762;14.320;2023-09-07T08:45:32;10.00;;;7.38;;
7166;SDS011;3625;51.762;14.320;2023-09-07T08:48:14;9.80;;;7.40;;
7166;SDS011;3625;51.762;14.320;2023-09-07T08:50:47;9.43;;;7.13;;
7166;SDS011;3625;51.762;14.320;2023-09-07T08:53:18;8.32;;;7.35;;
7166;SDS011;3625;51.762;14.320;2023-09-07T08:55:51;8.88;;;7.30;;
7166;SDS011;3625;51.762;14.320;2023-09-07T08:58:21;8.23;;;7.43;;
7166;SDS011;3625;51.762;14.320;2023-09-07T09:00:50;8.30;;;6.60;;
7166;SDS011;3625;51.762;14.320;2023-09-07T09:03:20;7.65;;;6.85;;
7166;SDS011;3625;51.762;14.320;2023-09-07T09:05:50;7.95;;;6.75;;
7166;SDS011;3625;51.762;14.320;2023-09-07T09:08:22;7.10;;;6.20;;
7166;SDS011;3625;51.762;14.320;2023-09-07T09:11:01;7.90;;;7.10;;
7166;SDS011;3625;51.762;14.320;2023-09-07T09:13:33;8.48;;;6.63;;
7166;SDS011;3625;51.762;14.320;2023-09-07T09:16:03;7.65;;;6.03;;
7166;SDS011;3625;51.762;14.320;2023-09-07T09:18:32;7.60;;;6.88;;
7166;SDS011;3625;51.762;14.320;2023-09-07T09:21:03;6.82;;;6.13;;
7166;SDS011;3625;51.762;14.320;2023-09-07T09:23:32;6.75;;;6.10;;
7166;SDS011;3625;51.762;14.320;2023-09-07T09:26:11;7.65;;;5.95;;
7166;SDS011;3625;51.762;14.320;2023-09-07T09:28:45;7.30;;;5.80;;
7166;SDS011;3625;51.762;14.320;2023-09-07T09:31:17;7.28;;;6.28;;
7166;SDS011;3625;51.762;14.320;2023-09-07T09:33:49;6.05;;;5.45;;
7166;SDS011;3625;51.762;14.320;2023-09-07T09:36:19;7.13;;;5.82;;
7166;SDS011;3625;51.762;14.320;2023-09-07T09:38:50;7.25;;;6.07;;
7166;SDS011;3625;51.762;14.320;2023-09-07T09:41:20;8.52;;;6.18;;
7166;SDS011;3625;51.762;14.320;2023-09-07T09:43:52;10.75;;;6.60;;
7166;SDS011;3625;51.762;14.320;2023-09-07T09:46:21;7.07;;;6.35;;
7166;SDS011;3625;51.762;14.320;2023-09-07T09:48:53;6.40;;;5.80;;
7166;SDS011;3625;51.762;14.320;2023-09-07T09:51:32;6.75;;;5.65;;
7166;SDS011;3625;51.762;14.320;2023-09-07T09:54:08;6.43;;;5.75;;
7166;SDS011;3625;51.762;14.320;2023-09-07T09:57:00;7.53;;;5.72;;
7166;SDS011;3625;51.762;14.320;2023-09-07T09:59:30;7.22;;;5.35;;
7166;SDS011;3625;51.762;14.320;2023-09-07T10:02:00;5.75;;;5.13;;
7166;SDS011;3625;51.762;14.320;2023-09-07T10:04:31;5.50;;;4.90;;
7166;SDS011;3625;51.762;14.320;2023-09-07T10:07:00;5.88;;;5.07;;
7166;SDS011;3625;51.762;14.320;2023-09-07T10:09:45;6.88;;;5.00;;
7166;SDS011;3625;51.762;14.320;2023-09-07T10:12:14;4.63;;;4.18;;
7166;SDS011;3625;51.762;14.320;2023-09-07T10:14:45;3.85;;;3.55;;
7166;SDS011;3625;51.762;14.320;2023-09-07T10:17:21;4.10;;;3.70;;
7166;SDS011;3625;51.762;14.320;2023-09-07T10:20:02;4.28;;;3.88;;
7166;SDS011;3625;51.762;14.320;2023-09-07T10:22:32;4.47;;;4.05;;
7166;SDS011;3625;51.762;14.320;2023-09-07T10:25:01;7.55;;;4.10;;
7166;SDS011;3625;51.762;14.320;2023-09-07T10:27:37;6.47;;;4.30;;
7166;SDS011;3625;51.762;14.320;2023-09-07T10:30:11;4.43;;;4.03;;
7166;SDS011;3625;51.762;14.320;2023-09-07T10:32:45;5.80;;;3.60;;
7166;SDS011;3625;51.762;14.320;2023-09-07T10:35:14;5.25;;;3.85;;
7166;SDS011;3625;51.762;14.320;2023-09-07T10:37:45;5.13;;;3.50;;
7166;SDS011;3625;51.762;14.320;2023-09-07T10:40:21;3.65;;;3.05;;
7166;SDS011;3625;51.762;14.320;2023-09-07T10:43:00;5.80;;;3.60;;
7166;SDS011;3625;51.762;14.320;2023-09-07T10:45:33;4.97;;;3.63;;
7166;SDS011;3625;51.762;14.320;2023-09-07T10:48:04;6.00;;;3.80;;
7166;SDS011;3625;51.762;14.320;2023-09-07T10:50:41;4.78;;;3.50;;
7166;SDS011;3625;51.762;14.320;2023-09-07T10:53:12;3.38;;;2.97;;
7166;SDS011;3625;51.762;14.320;2023-09-07T10:55:45;3.55;;;3.22;;
7166;SDS011;3625;51.762;14.320;2023-09-07T10:58:25;3.60;;;3.30;;
7166;SDS011;3625;51.762;14.320;2023-09-07T11:00:58;3.50;;;3.20;;
7166;SDS011;3625;51.762;14.320;2023-09-07T11:03:28;3.92;;;3.63;;
7166;SDS011;3625;51.762;14.320;2023-09-07T11:05:58;4.47;;;3.63;;
7166;SDS011;3625;51.762;14.320;2023-09-07T11:08:32;4.47;;;3.60;;
7166;SDS011;3625;51.762;14.320;2023-09-07T11:11:05;4.10;;;3.38;;
7166;SDS011;3625;51.762;14.320;2023-09-07T11:13:34;4.35;;;3.60;;
7166;SDS011;3625;51.762;14.320;2023-09-07T11:16:07;4.85;;;3.60;;
7166;SDS011;3625;51.762;14.320;2023-09-07T11:18:42;4.18;;;3.50;;
7166;SDS011;3625;51.762;14.320;2023-09-07T11:21:12;3.50;;;3.20;;
7166;SDS011;3625;51.762;14.320;2023-09-07T11:23:57;4.47;;;3.38;;
7166;SDS011;3625;51.762;14.320;2023-09-07T11:26:26;3.88;;;3.47;;
7166;SDS011;3625;51.762;14.320;2023-09-07T11:28:56;4.00;;;3.60;;
7166;SDS011;3625;51.762;14.320;2023-09-07T11:31:35;4.55;;;3.78;;
7166;SDS011;3625;51.762;14.320;2023-09-07T11:34:08;4.05;;;3.53;;
7166;SDS011;3625;51.762;14.320;2023-09-07T11:36:38;5.10;;;4.00;;
7166;SDS011;3625;51.762;14.320;2023-09-07T11:39:10;4.07;;;3.67;;
7166;SDS011;3625;51.762;14.320;2023-09-07T11:41:41;4.63;;;3.65;;
7166;SDS011;3625;51.762;14.320;2023-09-07T11:44:13;4.35;;;3.50;;
7166;SDS011;3625;51.762;14.320;2023-09-07T11:46:44;3.72;;;3.42;;
7166;SDS011;3625;51.762;14.320;2023-09-07T11:49:12;4.90;;;4.05;;
7166;SDS011;3625;51.762;14.320;2023-09-07T11:51:48;4.35;;;3.83;;
7166;SDS011;3625;51.762;14.320;2023-09-07T11:54:17;4.07;;;3.67;;
7166;SDS011;3625;51.762;14.320;2023-09-07T11:56:49;4.03;;;3.63;;
7166;SDS011;3625;51.762;14.320;2023-09-07T11:59:18;5.10;;;3.90;;
7166;SDS011;3625;51.762;14.320;2023-09-07T12:01:51;5.28;;;4.00;;
7166;SDS011;3625;51.762;14.320;2023-09-07T12:04:27;4.07;;;3.67;;
7166;SDS011;3625;51.762;14.320;2023-09-07T12:06:57;5.38;;;3.72;;
7166;SDS011;3625;51.762;14.320;2023-09-07T12:09:26;3.83;;;3.50;;
7166;SDS011;3625;51.762;14.320;2023-09-07T12:11:54;3.53;;;3.22;;
7166;SDS011;3625;51.762;14.320;2023-09-07T12:14:28;3.40;;;3.10;;
7166;SDS011;3625;51.762;14.320;2023-09-07T12:16:59;3.00;;;2.70;;
7166;SDS011;3625;51.762;14.320;2023-09-07T12:19:29;4.30;;;3.30;;
7166;SDS011;3625;51.762;14.320;2023-09-07T12:22:00;3.58;;;3.28;;
7166;SDS011;3625;51.762;14.320;2023-09-07T12:24:30;4.80;;;4.18;;
7166;SDS011;3625;51.762;14.320;2023-09-07T12:26:58;4.60;;;3.63;;
7166;SDS011;3625;51.762;14.320;2023-09-07T12:29:27;3.60;;;3.30;;
7166;SDS011;3625;51.762;14.320;2023-09-07T12:31:55;4.30;;;3.90;;
7166;SDS011;3625;51.762;14.320;2023-09-07T12:34:26;3.65;;;3.33;;
7166;SDS011;3625;51.762;14.320;2023-09-07T12:36:58;3.85;;;3.10;;
7166;SDS011;3625;51.762;14.320;2023-09-07T12:39:33;3.53;;;3.22;;
7166;SDS011;3625;51.762;14.320;2023-09-07T12:42:02;3.70;;;3.35;;
7166;SDS011;3625;51.762;14.320;2023-09-07T12:44:31;4.18;;;3.35;;
7166;SDS011;3625;51.762;14.320;2023-09-07T12:47:04;5.32;;;3.70;;
7166;SDS011;3625;51.762;14.320;2023-09-07T12:49:34;3.38;;;3.08;;
7166;SDS011;3625;51.762;14.320;2023-09-07T12:52:04;4.22;;;3.65;;
7166;SDS011;3625;51.762;14.320;2023-09-07T12:54:35;4.32;;;3.50;;
7166;SDS011;3625;51.762;14.320;2023-09-07T12:57:06;4.95;;;3.45;;
7166;SDS011;3625;51.762;14.320;2023-09-07T12:59:37;3.78;;;3.33;;
7166;SDS011;3625;51.762;14.320;2023-09-07T13:02:06;3.97;;;3.53;;
7166;SDS011;3625;51.762;14.320;2023-09-07T13:04:38;3.33;;;3.03;;
7166;SDS011;3625;51.762;14.320;2023-09-07T13:07:07;3.53;;;3.15;;
7166;SDS011;3625;51.762;14.320;2023-09-07T13:09:35;4.43;;;3.67;;
7166;SDS011;3625;51.762;14.320;2023-09-07T13:12:08;4.35;;;3.10;;
7166;SDS011;3625;51.762;14.320;2023-09-07T13:14:37;3.75;;;3.35;;
7166;SDS011;3625;51.762;14.320;2023-09-07T13:17:11;4.75;;;3.38;;
7166;SDS011;3625;51.762;14.320;2023-09-07T13:19:43;4.07;;;3.28;;
7166;SDS011;3625;51.762;14.320;2023-09-07T13:22:13;4.38;;;3.20;;
7166;SDS011;3625;51.762;14.320;2023-09-07T13:24:42;3.65;;;3.28;;
7166;SDS011;3625;51.762;14.320;2023-09-07T13:27:10;4.15;;;2.85;;
7166;SDS011;3625;51.762;14.320;2023-09-07T13:29:39;3.30;;;3.00;;
7166;SDS011;3625;51.762;14.320;2023-09-07T13:32:09;3.75;;;2.85;;
7166;SDS011;3625;51.762;14.320;2023-09-07T13:34:38;3.38;;;3.08;;
7166;SDS011;3625;51.762;14.320;2023-09-07T13:37:08;3.42;;;2.70;;
7166;SDS011;3625;51.762;14.320;2023-09-07T13:39:41;2.92;;;2.60;;
7166;SDS011;3625;51.762;14.320;2023-09-07T13:42:13;3.50;;;2.95;;
7166;SDS011;3625;51.762;14.320;2023-09-07T13:44:41;3.55;;;3.25;;
7166;SDS011;3625;51.762;14.320;2023-09-07T13:47:12;3.42;;;3.13;;
7166;SDS011;3625;51.762;14.320;2023-09-07T13:49:40;3.67;;;3.20;;
7166;SDS011;3625;51.762;14.320;2023-09-07T13:52:12;2.97;;;2.67;;
7166;SDS011;3625;51.762;14.320;2023-09-07T13:54:42;4.43;;;3.13;;
7166;SDS011;3625;51.762;14.320;2023-09-07T13:57:16;3.72;;;2.75;;
7166;SDS011;3625;51.762;14.320;2023-09-07T13:59:54;5.68;;;2.90;;
7166;SDS011;3625;51.762;14.320;2023-09-07T14:02:26;3.83;;;2.90;;
7166;SDS011;3625;51.762;14.320;2023-09-07T14:05:05;3.35;;;3.05;;
7166;SDS011;3625;51.762;14.320;2023-09-07T14:07:45;3.50;;;2.80;;
7166;SDS011;3625;51.762;14.320;2023-09-07T14:10:25;3.35;;;2.80;;
7166;SDS011;3625;51.762;14.320;2023-09-07T14:13:01;4.85;;;3.00;;
7166;SDS011;3625;51.762;14.320;2023-09-07T14:15:37;3.20;;;2.90;;
7166;SDS011;3625;51.762;14.320;2023-09-07T14:18:07;3.30;;;2.90;;
7166;SDS011;3625;51.762;14.320;2023-09-07T14:20:36;4.20;;;3.50;;
7166;SDS011;3625;51.762;14.320;2023-09-07T14:23:09;4.65;;;3.25;;
7166;SDS011;3625;51.762;14.320;2023-09-07T14:25:41;5.13;;;3.22;;
7166;SDS011;3625;51.762;14.320;2023-09-07T14:28:19;3.78;;;3.10;;
7166;SDS011;3625;51.762;14.320;2023-09-07T14:30:55;4.75;;;3.22;;
7166;SDS011;3625;51.762;14.320;2023-09-07T14:33:53;4.05;;;3.40;;
7166;SDS011;3625;51.762;14.320;2023-09-07T14:36:24;4.90;;;3.45;;
7166;SDS011;3625;51.762;14.320;2023-09-07T14:38:58;3.65;;;3.35;;
7166;SDS011;3625;51.762;14.320;2023-09-07T14:41:29;3.75;;;3.35;;
7166;SDS011;3625;51.762;14.320;2023-09-07T14:44:06;4.10;;;3.70;;
7166;SDS011;3625;51.762;14.320;2023-09-07T14:46:39;3.70;;;3.40;;
7166;SDS011;3625;51.762;14.320;2023-09-07T14:49:15;4.63;;;4.10;;
7166;SDS011;3625;51.762;14.320;2023-09-07T14:51:53;5.35;;;3.90;;
7166;SDS011;3625;51.762;14.320;2023-09-07T14:54:53;4.65;;;3.38;;
7166;SDS011;3625;51.762;14.320;2023-09-07T14:57:33;3.78;;;3.33;;
7166;SDS011;3625;51.762;14.320;2023-09-07T15:00:04;4.13;;;3.50;;
7166;SDS011;3625;51.762;14.320;2023-09-07T15:02:39;3.65;;;3.35;;
7166;SDS011;3625;51.762;14.320;2023-09-07T15:05:14;5.60;;;3.65;;
7166;SDS011;3625;51.762;14.320;2023-09-07T15:07:54;3.83;;;3.45;;
7166;SDS011;3625;51.762;14.320;2023-09-07T15:10:37;4.40;;;3.33;;
7166;SDS011;3625;51.762;14.320;2023-09-07T15:13:19;4.90;;;3.83;;